Time;durP1;ratioP1;P1;durP2;ratioP2;P2;SDS_P1;SDS_P2;PMS_P1;PMS_P2;Temp;Humidity;BMP_temperature;BMP_pressure;BME280_temperature;BME280_humidity;BME280_pressure;Samples;Min_cycle;Max_cycle;Signal;HPM_P1;HPM_P2
2022/02/02 00:00:21;;;;;;;;;;;;;;;;;;1034455;28;1066;-41
2022/02/02 00:00:54;;;;;;;;;;;;;;;;;;1034950;28;903;-42
2022/02/02 00:02:17;;;;;;;;;;;;;;;;;;1034337;28;942;-42
2022/02/02 00:03:05;;;;;;;;;;;;;;;;;;1023756;28;1150;-42
2022/02/02 00:03:10;;;;;;;;;;;;;;;;;;1024010;28;1498;-42
2022/02/02 00:03:48;;;;;;;;;;;;;;;;;;1034551;28;910;-42
2022/02/02 00:04:24;;;;;;;;;;;;;;;;;;1034821;28;950;-41
2022/02/02 00:05:03;;;;;;;;;;;;;;;;;;1034836;28;911;-42
2022/02/02 00:05:42;;;;;;;;;;;;;;;;;;1034692;28;1045;-41
2022/02/02 00:06:34;;;;;;;;;;;;;;;;;;1034545;28;966;-42
2022/02/02 00:07:12;;;;;;;;;;;;;;;;;;1030453;28;1067;-42
2022/02/02 00:07:58;;;;;;;;;;;;;;;;;;1030355;28;835;-41
2022/02/02 00:08:39;;;;;;;;;;;;;;;;;;1030359;28;855;-42
2022/02/02 00:09:14;;;;;;;;;;;;;;;;;;1034848;28;1093;-42
2022/02/02 00:09:52;;;;;;;;;;;;;;;;;;1034736;28;1137;-42
2022/02/02 00:12:47;;;;;;;;;;;;;;;;;;1034847;28;870;-42
2022/02/02 00:13:39;;;;;;;;;;;;;;;;;;1034929;28;954;-41
2022/02/02 00:14:27;;;;;;;;;;;;;;;;;;1034794;28;958;-41
2022/02/02 00:16:35;;;;;;;;;;;;;;;;;;1034818;28;1049;-41
2022/02/02 00:17:16;;;;;;;;;;;;;;;;;;1034698;28;934;-41
2022/02/02 00:18:11;;;;;;;;;;;;;;;;;;1034641;28;938;-41
2022/02/02 00:18:46;;;;;;;;;;;;;;;;;;1030249;28;946;-41
2022/02/02 00:19:26;;;;;;;;;;;;;;;;;;1030555;28;771;-41
2022/02/02 00:20:13;;;;;;;;;;;;;;;;;;1030639;28;1225;-42
2022/02/02 00:20:57;;;;;;;;;;;;;;;;;;1034410;28;1210;-41
2022/02/02 00:21:40;;;;;;;;;;;;;;;;;;1034831;28;1073;-41
2022/02/02 00:22:18;;;;;;;;;;;;;;;;;;1034628;28;949;-41
2022/02/02 00:22:52;;;;;;;;;;;;;;;;;;1034712;28;894;-41
2022/02/02 00:23:27;;;;;;;;;;;;;;;;;;1034889;28;934;-41
2022/02/02 00:24:03;;;;;;;;;;;;;;;;;;1034888;28;962;-41
2022/02/02 00:24:50;;;;;;;;;;;;;;;;;;1034530;28;1001;-41
2022/02/02 00:25:24;;;;;;;;;;;;;;;;;;1034819;28;855;-41
2022/02/02 00:26:01;;;;;;;;;;;;;;;;;;1034829;28;830;-41
2022/02/02 00:26:37;;;;;;;;;;;;;;;;;;1034729;28;883;-41
2022/02/02 00:27:10;;;;;;;;;;;;;;;;;;1034674;28;942;-41
2022/02/02 00:27:44;;;;;;;;;;;;;;;;;;1034734;28;838;-41
2022/02/02 00:28:18;;;;;;;;;;;;;;;;;;1034842;28;932;-41
2022/02/02 00:28:53;;;;;;;;;;;;;;;;;;1034394;28;1113;-41
2022/02/02 00:29:31;;;;;;;;;;;;;;;;;;1034859;28;857;-41
2022/02/02 00:30:03;;;;;;;;;;;;;;;;;;1034801;28;1076;-41
2022/02/02 00:30:37;;;;;;;;;;;;;;;;;;1034575;28;993;-41
2022/02/02 00:31:13;;;;;;;;;;;;;;;;;;1034722;28;887;-41
2022/02/02 00:31:50;;;;;;;;;;;;;;;;;;1034911;28;914;-41
2022/02/02 00:32:45;;;;;;;;;;;;;;;;;;1034900;28;965;-41
2022/02/02 00:33:29;;;;;;;;;;;;;;;;;;1034862;28;1472;-41
2022/02/02 00:34:04;;;;;;;;;;;;;;;;;;1034672;28;981;-40
2022/02/02 00:34:34;;;;;;;;;;;;;;;;;;1034572;28;1094;-41
2022/02/02 00:35:06;;;;;;;;;;;;;;;;;;1034934;28;807;-41
2022/02/02 00:35:41;;;;;;;;;;;;;;;;;;1034699;28;934;-41
2022/02/02 00:36:17;;;;;;;;;;;;;;;;;;1034725;28;950;-42
2022/02/02 00:36:58;;;;;;;;;;;;;;;;;;1034671;28;954;-41
2022/02/02 00:37:28;;;;;;;;;;;;;;;;;;1034902;28;982;-41
2022/02/02 00:37:59;;;;;;;;;;;;;;;;;;1034547;28;969;-41
2022/02/02 00:38:29;;;;;;;;;;;;;;;;;;1034798;28;942;-41
2022/02/02 00:38:59;;;;;;;;;;;;;;;;;;1034817;28;985;-41
2022/02/02 00:39:30;;;;;;;;;;;;;;;;;;1034619;28;898;-41
2022/02/02 00:40:00;;;;;;;;;;;;;;;;;;1034775;28;1018;-41
2022/02/02 00:40:31;;;;;;;;;;;;;;;;;;1034349;28;888;-41
2022/02/02 00:41:02;;;;;;;;;;;;;;;;;;1034814;28;946;-41
2022/02/02 00:41:32;;;;;;;;;;;;;;;;;;1034816;28;1052;-41
2022/02/02 00:42:03;;;;;;;;;;;;;;;;;;1034521;28;921;-42
2022/02/02 00:42:33;;;;;;;;;;;;;;;;;;1034921;28;958;-41
2022/02/02 00:43:04;;;;;;;;;;;;;;;;;;1034641;28;952;-41
2022/02/02 00:43:34;;;;;;;;;;;;;;;;;;1034677;28;815;-41
2022/02/02 00:44:05;;;;;;;;;;;;;;;;;;1034762;28;922;-41
2022/02/02 00:44:41;;;;;;;;;;;;;;;;;;1034379;28;914;-41
2022/02/02 00:45:11;;;;;;;;;;;;;;;;;;1034869;28;858;-41
2022/02/02 00:45:45;;;;;;;;;;;;;;;;;;1034834;28;926;-42
2022/02/02 00:46:15;;;;;;;;;;;;;;;;;;1034456;28;913;-42
2022/02/02 00:46:46;;;;;;;;;;;;;;;;;;1034850;28;1050;-41
2022/02/02 00:47:23;;;;;;;;;;;;;;;;;;1034664;28;956;-42
2022/02/02 00:47:53;;;;;;;;;;;;;;;;;;1034446;28;1113;-42
2022/02/02 00:48:28;;;;;;;;;;;;;;;;;;1034819;28;1009;-41
2022/02/02 00:49:01;;;;;;;;;;;;;;;;;;1034694;28;906;-42
2022/02/02 00:49:32;;;;;;;;;;;;;;;;;;1034767;28;858;-41
2022/02/02 00:50:02;;;;;;;;;;;;;;;;;;1034741;28;966;-41
2022/02/02 00:50:33;;;;;;;;;;;;;;;;;;1034474;28;973;-42
2022/02/02 00:51:03;;;;;;;;;;;;;;;;;;1030348;28;867;-41
2022/02/02 00:52:08;;;;;;;;;;;;;;;;;;1030206;28;898;-41
2022/02/02 00:52:38;;;;;;;;;;;;;;;;;;1030939;28;945;-42
2022/02/02 00:53:10;;;;;;;;;;;;;;;;;;1034796;28;1082;-42
2022/02/02 00:53:40;;;;;;;;;;;;;;;;;;1034590;28;946;-41
2022/02/02 00:54:15;;;;;;;;;;;;;;;;;;1034740;28;986;-42
2022/02/02 00:54:47;;;;;;;;;;;;;;;;;;1034635;28;830;-42
2022/02/02 00:55:18;;;;;;;;;;;;;;;;;;1034674;28;858;-42
2022/02/02 00:55:48;;;;;;;;;;;;;;;;;;1034717;28;1082;-42
2022/02/02 00:56:19;;;;;;;;;;;;;;;;;;1034593;28;942;-41
2022/02/02 00:56:49;;;;;;;;;;;;;;;;;;1034697;28;807;-41
2022/02/02 00:57:20;;;;;;;;;;;;;;;;;;1034813;28;1077;-41
2022/02/02 00:57:50;;;;;;;;;;;;;;;;;;1034579;28;890;-41
2022/02/02 00:58:23;;;;;;;;;;;;;;;;;;1034859;28;1073;-41
2022/02/02 00:58:53;;;;;;;;;;;;;;;;;;1034460;28;1000;-42
2022/02/02 00:59:24;;;;;;;;;;;;;;;;;;1034760;28;918;-41
2022/02/02 00:59:57;;;;;;;;;;;;;;;;;;1034774;28;1077;-42
2022/02/02 01:00:27;;;;;;;;;;;;;;;;;;1034306;28;1077;-41
2022/02/02 01:00:58;;;;;;;;;;;;;;;;;;1034833;28;925;-42
2022/02/02 01:01:28;;;;;;;;;;;;;;;;;;1034664;28;988;-42
2022/02/02 01:01:59;;;;;;;;;;;;;;;;;;1034542;28;1902;-41
2022/02/02 01:02:29;;;;;;;;;;;;;;;;;;1034741;28;996;-42
2022/02/02 01:03:00;;;;;;;;;;;;;;;;;;1034430;28;982;-42
2022/02/02 01:03:31;;;;;;;;;;;;;;;;;;1035480;28;869;-41
2022/02/02 01:04:01;;;;;;;;;;;;;;;;;;1035489;28;913;-42
2022/02/02 01:04:32;;;;;;;;;;;;;;;;;;1035281;28;846;-42
2022/02/02 01:05:02;;;;;;;;;;;;;;;;;;1035546;28;981;-41
2022/02/02 01:05:33;;;;;;;;;;;;;;;;;;1035203;28;980;-42
2022/02/02 01:06:03;;;;;;;;;;;;;;;;;;1035543;28;861;-41
2022/02/02 01:06:39;;;;;;;;;;;;;;;;;;1035491;28;911;-42
2022/02/02 01:09:50;;;;;;;;;;;;;;;;;;1022564;29;1089;-41
2022/02/02 01:10:37;;;;;;;;;;;;;;;;;;1022611;28;884;-41
2022/02/02 01:12:44;;;;;;;;;;;;;;;;;;1022669;29;946;-41
2022/02/02 01:17:34;;;;;;;;;;;;;;;;;;1035465;28;858;-41
2022/02/02 01:18:24;;;;;;;;;;;;;;;;;;1035429;28;878;-41
2022/02/02 01:19:25;;;;;;;;;;;;;;;;;;1035137;28;918;-42
2022/02/02 01:20:36;;;;;;;;;;;;;;;;;;1034807;28;1030;-41
2022/02/02 01:21:17;;;;;;;;;;;;;;;;;;1035463;28;906;-41
2022/02/02 01:27:50;;;;;;;;;;;;;;;;;;1035479;28;938;-41
2022/02/02 01:28:21;;;;;;;;;;;;;;;;;;1035449;28;830;-41
2022/02/02 01:28:51;;;;;;;;;;;;;;;;;;1035098;28;1240;-41
2022/02/02 01:29:22;;;;;;;;;;;;;;;;;;1035458;28;922;-41
2022/02/02 01:29:52;;;;;;;;;;;;;;;;;;1035322;28;919;-41
2022/02/02 01:30:23;;;;;;;;;;;;;;;;;;1035274;28;870;-41
2022/02/02 01:30:54;;;;;;;;;;;;;;;;;;1035244;28;1080;-41
2022/02/02 01:31:25;;;;;;;;;;;;;;;;;;1035359;28;969;-41
2022/02/02 01:31:57;;;;;;;;;;;;;;;;;;1035294;28;859;-41
2022/02/02 01:32:27;;;;;;;;;;;;;;;;;;1035451;28;989;-41
2022/02/02 01:32:58;;;;;;;;;;;;;;;;;;1035199;28;850;-41
2022/02/02 01:33:28;;;;;;;;;;;;;;;;;;1035500;28;859;-41
2022/02/02 01:33:59;;;;;;;;;;;;;;;;;;1035302;28;954;-41
2022/02/02 01:34:29;;;;;;;;;;;;;;;;;;1035188;28;962;-41
2022/02/02 01:35:00;;;;;;;;;;;;;;;;;;1035409;28;1085;-41
2022/02/02 01:35:30;;;;;;;;;;;;;;;;;;1035258;28;917;-41
2022/02/02 01:36:01;;;;;;;;;;;;;;;;;;1035323;28;946;-41
2022/02/02 01:36:38;;;;;;;;;;;;;;;;;;1035331;28;946;-41
2022/02/02 01:37:09;;;;;;;;;;;;;;;;;;1034980;28;926;-41
2022/02/02 01:37:40;;;;;;;;;;;;;;;;;;1031062;28;743;-41
2022/02/02 01:38:11;;;;;;;;;;;;;;;;;;1030892;28;993;-41
2022/02/02 01:38:43;;;;;;;;;;;;;;;;;;1030875;28;922;-41
2022/02/02 01:39:16;;;;;;;;;;;;;;;;;;1031464;28;998;-41
2022/02/02 01:39:53;;;;;;;;;;;;;;;;;;1035109;28;1054;-41
2022/02/02 01:40:31;;;;;;;;;;;;;;;;;;1035293;28;916;-41
2022/02/02 01:41:07;;;;;;;;;;;;;;;;;;1035243;28;846;-41
2022/02/02 01:41:41;;;;;;;;;;;;;;;;;;1035401;28;1981;-41
2022/02/02 01:42:15;;;;;;;;;;;;;;;;;;1035108;28;942;-41
2022/02/02 01:42:53;;;;;;;;;;;;;;;;;;1035220;28;966;-41
2022/02/02 01:43:29;;;;;;;;;;;;;;;;;;1035537;28;1085;-41
2022/02/02 01:44:19;;;;;;;;;;;;;;;;;;1030739;28;1041;-41
2022/02/02 01:45:34;;;;;;;;;;;;;;;;;;1030884;28;903;-41
2022/02/02 01:46:07;;;;;;;;;;;;;;;;;;1035470;28;839;-41
2022/02/02 01:46:38;;;;;;;;;;;;;;;;;;1035344;28;948;-41
2022/02/02 01:47:09;;;;;;;;;;;;;;;;;;1035038;28;902;-41
2022/02/02 01:47:51;;;;;;;;;;;;;;;;;;1035527;28;791;-41
2022/02/02 01:48:34;;;;;;;;;;;;;;;;;;1035409;28;1049;-41
2022/02/02 01:50:10;;;;;;;;;;;;;;;;;;1035272;28;950;-41
2022/02/02 01:52:02;;;;;;;;;;;;;;;;;;1035312;28;922;-41
2022/02/02 01:53:50;;;;;;;;;;;;;;;;;;1035316;28;910;-41
2022/02/02 01:55:16;;;;;;;;;;;;;;;;;;1035312;28;958;-41
2022/02/02 01:55:46;;;;;;;;;;;;;;;;;;1035158;28;995;-41
2022/02/02 01:56:17;;;;;;;;;;;;;;;;;;1035239;28;1052;-43
2022/02/02 01:56:47;;;;;;;;;;;;;;;;;;1035503;28;843;-40
2022/02/02 01:58:06;;;;;;;;;;;;;;;;;;1035213;28;918;-41
2022/02/02 01:59:37;;;;;;;;;;;;;;;;;;1035381;28;788;-41
2022/02/02 02:00:08;;;;;;;;;;;;;;;;;;1035195;28;982;-41
2022/02/02 02:00:39;;;;;;;;;;;;;;;;;;1030673;28;1418;-40
2022/02/02 02:01:10;;;;;;;;;;;;;;;;;;1030860;28;913;-41
2022/02/02 02:01:40;;;;;;;;;;;;;;;;;;1030792;28;1926;-42
2022/02/02 02:02:11;;;;;;;;;;;;;;;;;;1030852;28;958;-41
2022/02/02 02:02:41;;;;;;;;;;;;;;;;;;1035243;28;938;-41
2022/02/02 02:03:12;;;;;;;;;;;;;;;;;;1035316;28;941;-41
2022/02/02 02:03:42;;;;;;;;;;;;;;;;;;1035017;28;958;-41
2022/02/02 02:04:12;;;;;;;;;;;;;;;;;;1035278;28;939;-41
2022/02/02 02:04:43;;;;;;;;;;;;;;;;;;1035068;28;1030;-41
2022/02/02 02:05:13;;;;;;;;;;;;;;;;;;1035369;28;878;-41
2022/02/02 02:05:44;;;;;;;;;;;;;;;;;;1035162;28;883;-41
2022/02/02 02:06:14;;;;;;;;;;;;;;;;;;1035108;28;906;-41
2022/02/02 02:06:44;;;;;;;;;;;;;;;;;;1035193;28;951;-41
2022/02/02 02:07:15;;;;;;;;;;;;;;;;;;1035150;28;994;-41
2022/02/02 02:07:47;;;;;;;;;;;;;;;;;;1035177;28;881;-41
2022/02/02 02:08:17;;;;;;;;;;;;;;;;;;1035220;28;1001;-41
2022/02/02 02:08:48;;;;;;;;;;;;;;;;;;1035231;28;873;-41
2022/02/02 02:09:20;;;;;;;;;;;;;;;;;;1035246;28;906;-41
2022/02/02 02:09:52;;;;;;;;;;;;;;;;;;1035300;28;953;-41
2022/02/02 02:10:23;;;;;;;;;;;;;;;;;;1034812;28;810;-41
2022/02/02 02:10:54;;;;;;;;;;;;;;;;;;1035371;28;986;-41
2022/02/02 02:11:24;;;;;;;;;;;;;;;;;;1034991;28;910;-41
2022/02/02 02:11:58;;;;;;;;;;;;;;;;;;1035363;28;846;-41
2022/02/02 02:12:31;;;;;;;;;;;;;;;;;;1035119;28;1068;-41
2022/02/02 02:13:08;;;;;;;;;;;;;;;;;;1035073;28;928;-41
2022/02/02 02:15:26;;;;;;;;;;;;;;;;;;1022194;29;1035;-41
2022/02/02 02:15:56;;;;;;;;;;;;;;;;;;1022567;29;1124;-41
2022/02/02 02:16:27;;;;;;;;;;;;;;;;;;1029080;28;989;-41
2022/02/02 02:16:57;;;;;;;;;;;;;;;;;;1035245;28;882;-41
2022/02/02 02:17:28;;;;;;;;;;;;;;;;;;1035042;28;1383;-40
2022/02/02 02:17:59;;;;;;;;;;;;;;;;;;1035037;28;977;-42
2022/02/02 02:18:30;;;;;;;;;;;;;;;;;;1035156;28;954;-41
2022/02/02 02:19:00;;;;;;;;;;;;;;;;;;1035199;28;1061;-41
2022/02/02 02:19:31;;;;;;;;;;;;;;;;;;1035113;28;938;-41
2022/02/02 02:20:01;;;;;;;;;;;;;;;;;;1035301;28;1151;-40
2022/02/02 02:20:32;;;;;;;;;;;;;;;;;;1034718;28;1281;-41
2022/02/02 02:21:09;;;;;;;;;;;;;;;;;;1035216;28;929;-41
2022/02/02 02:21:41;;;;;;;;;;;;;;;;;;1035052;28;1973;-41
2022/02/02 02:22:14;;;;;;;;;;;;;;;;;;1035053;28;937;-41
2022/02/02 02:22:45;;;;;;;;;;;;;;;;;;1035129;28;954;-41
2022/02/02 02:23:17;;;;;;;;;;;;;;;;;;1035315;28;939;-41
2022/02/02 02:23:49;;;;;;;;;;;;;;;;;;1035064;28;800;-41
2022/02/02 02:24:20;;;;;;;;;;;;;;;;;;1035373;28;862;-41
2022/02/02 02:24:51;;;;;;;;;;;;;;;;;;1034936;28;880;-41
2022/02/02 02:25:23;;;;;;;;;;;;;;;;;;1035171;28;870;-41
2022/02/02 02:25:54;;;;;;;;;;;;;;;;;;1035327;28;994;-41
2022/02/02 02:26:27;;;;;;;;;;;;;;;;;;1034904;28;1043;-41
2022/02/02 02:26:58;;;;;;;;;;;;;;;;;;1035142;28;1688;-41
2022/02/02 02:27:28;;;;;;;;;;;;;;;;;;1035101;28;894;-40
2022/02/02 02:28:12;;;;;;;;;;;;;;;;;;1035069;28;940;-41
2022/02/02 02:31:23;;;;;;;;;;;;;;;;;;1022210;29;981;-41
2022/02/02 02:31:39;;;;;;;;;;;;;;;;;;1018596;28;1161;-41
2022/02/02 02:32:37;;;;;;;;;;;;;;;;;;1035141;28;871;-43
2022/02/02 02:34:51;;;;;;;;;;;;;;;;;;1035110;28;874;-41
2022/02/02 02:37:29;;;;;;;;;;;;;;;;;;1035170;28;997;-41
2022/02/02 02:39:49;;;;;;;;;;;;;;;;;;1035043;28;1339;-41
2022/02/02 02:56:06;;;;;;;;;;;;;;;;;;1018497;29;966;-41
2022/02/02 02:56:42;;;;;;;;;;;;;;;;;;1018259;29;895;-41
2022/02/02 02:57:15;;;;;;;;;;;;;;;;;;1029059;28;1125;-41
2022/02/02 02:58:03;;;;;;;;;;;;;;;;;;1035026;28;961;-41
2022/02/02 02:58:44;;;;;;;;;;;;;;;;;;1035248;28;838;-41
2022/02/02 02:59:20;;;;;;;;;;;;;;;;;;1035040;28;957;-41
2022/02/02 03:00:06;;;;;;;;;;;;;;;;;;1034982;28;1285;-41
2022/02/02 03:01:25;;;;;;;;;;;;;;;;;;1034605;28;1031;-41
2022/02/02 03:49:29;;;;;;;;;;;;;;;;;;1030540;28;938;-42
2022/02/02 03:55:52;;;;;;;;;;;;;;;;;;1030719;28;997;-41
2022/02/02 03:58:47;;;;;;;;;;;;;;;;;;1030738;28;879;-42
2022/02/02 04:00:17;;;;;;;;;;;;;;;;;;1030505;28;895;-42
2022/02/02 04:00:55;;;;;;;;;;;;;;;;;;1030384;28;1467;-41
2022/02/02 04:04:24;;;;;;;;;;;;;;;;;;1030573;28;1068;-41
2022/02/02 04:05:47;;;;;;;;;;;;;;;;;;1030600;28;1582;-41
2022/02/02 04:06:23;;;;;;;;;;;;;;;;;;1030526;28;946;-41
2022/02/02 04:07:00;;;;;;;;;;;;;;;;;;1030904;28;800;-41
2022/02/02 04:07:44;;;;;;;;;;;;;;;;;;1030595;28;933;-41
2022/02/02 04:08:36;;;;;;;;;;;;;;;;;;1030702;28;931;-41
2022/02/02 04:09:06;;;;;;;;;;;;;;;;;;1030513;28;1143;-41
2022/02/02 04:09:39;;;;;;;;;;;;;;;;;;1030787;28;887;-41
2022/02/02 04:10:09;;;;;;;;;;;;;;;;;;1030741;28;1045;-41
2022/02/02 04:10:39;;;;;;;;;;;;;;;;;;1030312;28;950;-41
2022/02/02 04:11:15;;;;;;;;;;;;;;;;;;1030814;28;792;-41
2022/02/02 04:11:54;;;;;;;;;;;;;;;;;;1030546;28;977;-41
2022/02/02 04:13:31;;;;;;;;;;;;;;;;;;1030706;28;906;-41
2022/02/02 04:37:20;;;;;;;;;;;;;;;;;;1030820;28;819;-41
2022/02/02 04:37:29;;;;;;;;;;;;;;;;;;1034706;28;1906;-41
2022/02/02 04:51:31;;;;;;;;;;;;;;;;;;1035455;28;958;-41
2022/02/02 04:51:54;;;;;;;;;;;;;;;;;;1035236;28;929;-41
2022/02/02 04:53:22;;;;;;;;;;;;;;;;;;1035252;28;1018;-41
2022/02/02 04:54:26;;;;;;;;;;;;;;;;;;1035289;28;1045;-41
2022/02/02 04:55:04;;;;;;;;;;;;;;;;;;1035386;28;1061;-41
2022/02/02 04:59:11;;;;;;;;;;;;;;;;;;1035516;28;1008;-41
2022/02/02 05:02:41;;;;;;;;;;;;;;;;;;1035264;28;1973;-41
2022/02/02 05:07:06;;;;;;;;;;;;;;;;;;1035240;28;1708;-41
2022/02/02 05:08:28;;;;;;;;;;;;;;;;;;1035174;28;946;-41
2022/02/02 05:09:12;;;;;;;;;;;;;;;;;;1035160;28;901;-41
2022/02/02 05:10:53;;;;;;;;;;;;;;;;;;1035303;28;866;-41
2022/02/02 05:16:32;;;;;;;;;;;;;;;;;;1035489;28;977;-41
2022/02/02 05:17:25;;;;;;;;;;;;;;;;;;1035416;28;1217;-41
2022/02/02 05:18:14;;;;;;;;;;;;;;;;;;1035314;28;874;-41
2022/02/02 05:45:08;;;;;;;;;;;;;;;;;;1018683;29;1018;-41
2022/02/02 05:49:23;;;;;;;;;;;;;;;;;;1018523;29;868;-41
2022/02/02 05:50:03;;;;;;;;;;;;;;;;;;1018422;29;1110;-42
2022/02/02 05:50:52;;;;;;;;;;;;;;;;;;1018404;29;1639;-41
2022/02/02 05:51:24;;;;;;;;;;;;;;;;;;1018632;29;808;-42
2022/02/02 05:51:55;;;;;;;;;;;;;;;;;;1018560;29;1092;-42
2022/02/02 05:52:26;;;;;;;;;;;;;;;;;;1018320;29;1097;-42
2022/02/02 05:52:56;;;;;;;;;;;;;;;;;;1018494;29;891;-42
2022/02/02 05:53:27;;;;;;;;;;;;;;;;;;1018872;28;1121;-41
2022/02/02 05:53:57;;;;;;;;;;;;;;;;;;1026579;28;961;-42
2022/02/02 05:54:28;;;;;;;;;;;;;;;;;;1026980;28;963;-42
2022/02/02 05:54:58;;;;;;;;;;;;;;;;;;1026546;28;1359;-41
2022/02/02 05:55:33;;;;;;;;;;;;;;;;;;1027301;28;870;-41
2022/02/02 05:56:05;;;;;;;;;;;;;;;;;;1026979;28;1328;-42
2022/02/02 05:56:42;;;;;;;;;;;;;;;;;;1027161;28;970;-41
2022/02/02 05:57:13;;;;;;;;;;;;;;;;;;1027130;28;803;-42
2022/02/02 05:57:45;;;;;;;;;;;;;;;;;;1027220;28;1022;-41
2022/02/02 05:58:15;;;;;;;;;;;;;;;;;;1027104;28;938;-41
2022/02/02 05:58:47;;;;;;;;;;;;;;;;;;1027105;28;1020;-41
2022/02/02 05:59:19;;;;;;;;;;;;;;;;;;1027128;28;957;-42
2022/02/02 05:59:50;;;;;;;;;;;;;;;;;;1027116;28;843;-41
2022/02/02 06:00:20;;;;;;;;;;;;;;;;;;1026991;28;916;-42
2022/02/02 06:00:52;;;;;;;;;;;;;;;;;;1027132;28;776;-39
2022/02/02 06:01:24;;;;;;;;;;;;;;;;;;1026964;28;918;-41
2022/02/02 06:01:55;;;;;;;;;;;;;;;;;;1027135;28;1918;-42
2022/02/02 06:02:30;;;;;;;;;;;;;;;;;;1027061;28;949;-42
2022/02/02 06:03:01;;;;;;;;;;;;;;;;;;1027115;28;946;-41
2022/02/02 06:03:38;;;;;;;;;;;;;;;;;;1027172;28;939;-42
2022/02/02 06:04:08;;;;;;;;;;;;;;;;;;1026957;28;950;-40
2022/02/02 06:04:46;;;;;;;;;;;;;;;;;;1027142;28;839;-41
2022/02/02 06:05:16;;;;;;;;;;;;;;;;;;1027025;28;983;-41
2022/02/02 06:05:46;;;;;;;;;;;;;;;;;;1027015;28;909;-41
2022/02/02 06:06:17;;;;;;;;;;;;;;;;;;1027178;28;1025;-41
2022/02/02 06:06:48;;;;;;;;;;;;;;;;;;1027041;28;1009;-41
2022/02/02 06:07:18;;;;;;;;;;;;;;;;;;1027092;28;846;-41
2022/02/02 06:07:52;;;;;;;;;;;;;;;;;;1027316;28;1051;-41
2022/02/02 06:08:23;;;;;;;;;;;;;;;;;;1026858;28;934;-41
2022/02/02 06:08:54;;;;;;;;;;;;;;;;;;1027126;28;811;-41
2022/02/02 06:09:31;;;;;;;;;;;;;;;;;;1026823;28;951;-41
2022/02/02 06:10:06;;;;;;;;;;;;;;;;;;1027018;28;908;-42
2022/02/02 06:10:36;;;;;;;;;;;;;;;;;;1026889;28;1381;-41
2022/02/02 06:11:09;;;;;;;;;;;;;;;;;;1027222;28;981;-41
2022/02/02 06:11:40;;;;;;;;;;;;;;;;;;1026883;28;958;-41
2022/02/02 06:12:10;;;;;;;;;;;;;;;;;;1026986;28;1010;-41
2022/02/02 06:12:42;;;;;;;;;;;;;;;;;;1027048;28;862;-41
2022/02/02 06:13:12;;;;;;;;;;;;;;;;;;1027016;28;1331;-41
2022/02/02 06:13:46;;;;;;;;;;;;;;;;;;1026968;28;919;-41
2022/02/02 06:14:18;;;;;;;;;;;;;;;;;;1027167;28;958;-41
2022/02/02 06:14:49;;;;;;;;;;;;;;;;;;1026920;28;966;-41
2022/02/02 06:15:20;;;;;;;;;;;;;;;;;;1027121;28;989;-41
2022/02/02 06:15:51;;;;;;;;;;;;;;;;;;1026826;28;1711;-42
2022/02/02 06:16:22;;;;;;;;;;;;;;;;;;1026971;28;950;-41
2022/02/02 06:16:54;;;;;;;;;;;;;;;;;;1027211;28;1074;-41
2022/02/02 06:17:27;;;;;;;;;;;;;;;;;;1026857;28;1297;-41
2022/02/02 06:17:59;;;;;;;;;;;;;;;;;;1027010;28;914;-41
2022/02/02 06:18:30;;;;;;;;;;;;;;;;;;1027073;28;931;-41
2022/02/02 06:19:01;;;;;;;;;;;;;;;;;;1026870;28;886;-41
2022/02/02 06:19:32;;;;;;;;;;;;;;;;;;1027285;28;954;-41
2022/02/02 06:20:02;;;;;;;;;;;;;;;;;;1026842;28;851;-41
2022/02/02 06:20:34;;;;;;;;;;;;;;;;;;1028761;28;1117;-41
2022/02/02 06:21:05;;;;;;;;;;;;;;;;;;1031093;28;1018;-41
2022/02/02 06:21:36;;;;;;;;;;;;;;;;;;1030653;28;867;-42
2022/02/02 06:22:11;;;;;;;;;;;;;;;;;;1030982;28;1953;-42
2022/02/02 06:22:42;;;;;;;;;;;;;;;;;;1030796;28;1189;-42
2022/02/02 06:23:14;;;;;;;;;;;;;;;;;;1030881;28;918;-42
2022/02/02 06:23:48;;;;;;;;;;;;;;;;;;1031124;28;890;-42
2022/02/02 06:24:23;;;;;;;;;;;;;;;;;;1030817;28;953;-42
2022/02/02 06:25:01;;;;;;;;;;;;;;;;;;1030908;28;996;-42
2022/02/02 06:25:33;;;;;;;;;;;;;;;;;;1031144;28;891;-42
2022/02/02 06:26:04;;;;;;;;;;;;;;;;;;1031082;28;1163;-42
2022/02/02 06:26:36;;;;;;;;;;;;;;;;;;1030935;28;913;-42
2022/02/02 06:27:09;;;;;;;;;;;;;;;;;;1031098;28;934;-42
2022/02/02 06:27:41;;;;;;;;;;;;;;;;;;1030946;28;847;-39
2022/02/02 06:28:17;;;;;;;;;;;;;;;;;;1030840;28;943;-40
2022/02/02 06:28:47;;;;;;;;;;;;;;;;;;1034193;28;1137;-40
2022/02/02 06:29:18;;;;;;;;;;;;;;;;;;1035038;28;1013;-40
2022/02/02 06:29:51;;;;;;;;;;;;;;;;;;1034964;28;950;-40
2022/02/02 06:30:23;;;;;;;;;;;;;;;;;;1034956;28;982;-39
2022/02/02 06:30:56;;;;;;;;;;;;;;;;;;1034943;28;1025;-42
2022/02/02 06:31:27;;;;;;;;;;;;;;;;;;1035088;28;697;-41
2022/02/02 06:31:59;;;;;;;;;;;;;;;;;;1035035;28;967;-41
2022/02/02 06:32:35;;;;;;;;;;;;;;;;;;1034962;28;997;-42
2022/02/02 06:33:11;;;;;;;;;;;;;;;;;;1034942;28;847;-41
2022/02/02 06:33:41;;;;;;;;;;;;;;;;;;1034872;28;1008;-41
2022/02/02 06:34:13;;;;;;;;;;;;;;;;;;1035057;28;1060;-41
2022/02/02 06:34:44;;;;;;;;;;;;;;;;;;1034987;28;842;-41
2022/02/02 06:35:15;;;;;;;;;;;;;;;;;;1035060;28;962;-39
2022/02/02 06:35:46;;;;;;;;;;;;;;;;;;1034931;28;973;-42
2022/02/02 06:36:16;;;;;;;;;;;;;;;;;;1035063;28;934;-41
2022/02/02 06:36:49;;;;;;;;;;;;;;;;;;1034906;28;934;-41
2022/02/02 06:37:19;;;;;;;;;;;;;;;;;;1030619;28;907;-41
2022/02/02 06:37:50;;;;;;;;;;;;;;;;;;1030625;28;970;-41
2022/02/02 06:38:22;;;;;;;;;;;;;;;;;;1030529;28;1027;-41
2022/02/02 06:38:53;;;;;;;;;;;;;;;;;;1030970;28;835;-41
2022/02/02 06:39:26;;;;;;;;;;;;;;;;;;1034929;28;957;-41
2022/02/02 06:39:57;;;;;;;;;;;;;;;;;;1034852;28;977;-41
2022/02/02 06:40:28;;;;;;;;;;;;;;;;;;1034929;28;844;-41
2022/02/02 06:40:59;;;;;;;;;;;;;;;;;;1034944;28;939;-41
2022/02/02 06:41:30;;;;;;;;;;;;;;;;;;1035043;28;819;-42
2022/02/02 06:42:01;;;;;;;;;;;;;;;;;;1034829;28;1902;-42
2022/02/02 06:42:33;;;;;;;;;;;;;;;;;;1035014;28;828;-41
2022/02/02 06:43:03;;;;;;;;;;;;;;;;;;1034723;28;834;-41
2022/02/02 06:43:34;;;;;;;;;;;;;;;;;;1035224;28;961;-41
2022/02/02 06:44:05;;;;;;;;;;;;;;;;;;1034769;28;971;-41
2022/02/02 06:44:36;;;;;;;;;;;;;;;;;;1035041;28;906;-41
2022/02/02 06:45:08;;;;;;;;;;;;;;;;;;1034919;28;878;-43
2022/02/02 06:45:38;;;;;;;;;;;;;;;;;;1034823;28;946;-41
2022/02/02 06:46:08;;;;;;;;;;;;;;;;;;1035169;28;1376;-41
2022/02/02 06:46:40;;;;;;;;;;;;;;;;;;1034835;28;1071;-41
2022/02/02 06:47:10;;;;;;;;;;;;;;;;;;1034956;28;875;-41
2022/02/02 06:47:41;;;;;;;;;;;;;;;;;;1035046;28;1066;-41
2022/02/02 06:48:12;;;;;;;;;;;;;;;;;;1034829;28;972;-41
2022/02/02 06:48:42;;;;;;;;;;;;;;;;;;1034993;28;1186;-42
2022/02/02 06:49:12;;;;;;;;;;;;;;;;;;1034908;28;1010;-41
2022/02/02 06:49:46;;;;;;;;;;;;;;;;;;1034843;28;926;-40
2022/02/02 06:50:29;;;;;;;;;;;;;;;;;;1034800;28;1091;-41
2022/02/02 06:51:13;;;;;;;;;;;;;;;;;;1034842;28;973;-41
2022/02/02 06:51:52;;;;;;;;;;;;;;;;;;1034875;28;950;-42
2022/02/02 06:52:29;;;;;;;;;;;;;;;;;;1034675;28;890;-41
2022/02/02 06:53:24;;;;;;;;;;;;;;;;;;1035090;28;855;-41
2022/02/02 06:54:25;;;;;;;;;;;;;;;;;;1034866;28;878;-41
2022/02/02 06:55:02;;;;;;;;;;;;;;;;;;1034792;28;858;-42
2022/02/02 06:55:42;;;;;;;;;;;;;;;;;;1034930;28;803;-41
2022/02/02 06:57:08;;;;;;;;;;;;;;;;;;1035062;28;914;-41
2022/02/02 06:57:52;;;;;;;;;;;;;;;;;;1034995;28;932;-41
2022/02/02 06:58:33;;;;;;;;;;;;;;;;;;1034630;28;867;-41
2022/02/02 06:59:21;;;;;;;;;;;;;;;;;;1034960;28;911;-43
2022/02/02 07:00:07;;;;;;;;;;;;;;;;;;1034857;28;906;-41
2022/02/02 07:00:54;;;;;;;;;;;;;;;;;;1034696;28;950;-41
2022/02/02 07:02:48;;;;;;;;;;;;;;;;;;1034775;28;2341;-42
2022/02/02 07:03:07;;;;;;;;;;;;;;;;;;1029355;28;1454;-42
2022/02/02 07:04:51;;;;;;;;;;;;;;;;;;1034706;28;965;-41
2022/02/02 07:05:36;;;;;;;;;;;;;;;;;;1034779;28;966;-41
2022/02/02 07:06:51;;;;;;;;;;;;;;;;;;1034576;28;947;-41
2022/02/02 07:08:58;;;;;;;;;;;;;;;;;;1034714;28;843;-41
2022/02/02 07:10:09;;;;;;;;;;;;;;;;;;1034932;28;929;-42
2022/02/02 07:10:49;;;;;;;;;;;;;;;;;;1034229;28;1207;-41
2022/02/02 07:11:34;;;;;;;;;;;;;;;;;;1034851;28;950;-41
2022/02/02 07:12:20;;;;;;;;;;;;;;;;;;1035059;28;971;-42
2022/02/02 07:13:14;;;;;;;;;;;;;;;;;;1034885;28;1073;-41
2022/02/02 07:14:05;;;;;;;;;;;;;;;;;;1034927;28;962;-41
2022/02/02 07:16:13;;;;;;;;;;;;;;;;;;1034833;28;934;-41
2022/02/02 07:20:20;;;;;;;;;;;;;;;;;;1034832;28;933;-41
2022/02/02 07:21:20;;;;;;;;;;;;;;;;;;1034608;28;1788;-41
2022/02/02 07:23:40;;;;;;;;;;;;;;;;;;1034642;28;930;-42
2022/02/02 07:25:13;;;;;;;;;;;;;;;;;;1038397;28;988;-41
2022/02/02 07:26:02;;;;;;;;;;;;;;;;;;1038182;28;1403;-41
2022/02/02 07:28:11;;;;;;;;;;;;;;;;;;1034728;28;953;-41
2022/02/02 07:29:01;;;;;;;;;;;;;;;;;;1034524;28;1184;-41
2022/02/02 07:30:26;;;;;;;;;;;;;;;;;;1034923;28;923;-41
2022/02/02 07:31:06;;;;;;;;;;;;;;;;;;1034640;28;1053;-41
2022/02/02 07:32:36;;;;;;;;;;;;;;;;;;1034680;28;965;-41
2022/02/02 07:33:13;;;;;;;;;;;;;;;;;;1034985;28;934;-41
2022/02/02 07:33:48;;;;;;;;;;;;;;;;;;1034536;28;925;-41
2022/02/02 07:34:28;;;;;;;;;;;;;;;;;;1034843;28;874;-41
2022/02/02 07:35:30;;;;;;;;;;;;;;;;;;1034657;28;835;-41
2022/02/02 07:36:15;;;;;;;;;;;;;;;;;;1034688;28;902;-41
2022/02/02 07:36:48;;;;;;;;;;;;;;;;;;1034648;28;1037;-42
2022/02/02 07:37:30;;;;;;;;;;;;;;;;;;1034819;28;803;-41
2022/02/02 07:38:10;;;;;;;;;;;;;;;;;;1030401;28;903;-41
2022/02/02 07:38:59;;;;;;;;;;;;;;;;;;1030432;28;958;-41
2022/02/02 07:39:32;;;;;;;;;;;;;;;;;;1030564;28;993;-41